createdAt,value
2023-05-10T00:00:53.693Z,15.92
2023-05-10T00:03:26.489Z,15.89
2023-05-10T00:05:59.330Z,16.00
2023-05-10T00:08:33.773Z,15.95
2023-05-10T00:11:06.622Z,15.87
2023-05-10T00:13:39.447Z,15.79
2023-05-10T00:16:13.999Z,15.79
2023-05-10T00:18:47.193Z,15.79
2023-05-10T00:21:20.099Z,15.70
2023-05-10T00:23:54.306Z,15.65
2023-05-10T00:26:27.197Z,15.70
2023-05-10T00:29:02.159Z,15.63
2023-05-10T00:31:34.793Z,15.63
2023-05-10T00:34:07.580Z,15.60
2023-05-10T00:36:40.373Z,15.59
2023-05-10T00:39:14.944Z,15.60
2023-05-10T00:41:47.651Z,15.65
2023-05-10T00:44:20.673Z,15.59
2023-05-10T00:46:53.622Z,15.57
2023-05-10T00:49:26.467Z,15.56
2023-05-10T00:51:59.400Z,15.48
2023-05-10T00:54:34.012Z,15.51
2023-05-10T00:57:06.808Z,15.53
2023-05-10T00:59:39.810Z,15.56
2023-05-10T01:02:12.763Z,15.60
2023-05-10T01:04:45.778Z,15.52
2023-05-10T01:07:18.492Z,15.49
2023-05-10T01:09:52.681Z,15.47
2023-05-10T01:12:26.287Z,15.43
2023-05-10T01:14:59.718Z,15.43
2023-05-10T01:17:32.907Z,15.42
2023-05-10T01:20:08.998Z,15.55
2023-05-10T01:22:59.464Z,15.49
2023-05-10T01:26:01.215Z,15.45
2023-05-10T01:28:55.951Z,15.49
2023-05-10T01:31:46.443Z,15.55
2023-05-10T01:34:25.653Z,15.57
2023-05-10T01:37:04.795Z,15.59
2023-05-10T01:39:46.615Z,15.55
2023-05-10T01:42:23.363Z,15.57
2023-05-10T01:45:02.193Z,15.59
2023-05-10T01:47:41.018Z,15.61
2023-05-10T01:50:21.245Z,15.63
2023-05-10T01:52:57.843Z,15.59
2023-05-10T01:55:34.173Z,15.59
2023-05-10T01:58:09.868Z,15.54
2023-05-10T02:00:45.646Z,15.62
2023-05-10T02:03:20.803Z,15.68
2023-05-10T02:05:56.538Z,15.62
2023-05-10T02:08:29.964Z,15.67
2023-05-10T02:11:06.719Z,15.67
2023-05-10T02:13:41.380Z,15.75
2023-05-10T02:16:16.156Z,15.72
2023-05-10T02:18:50.350Z,15.71
2023-05-10T02:21:26.301Z,15.72
2023-05-10T02:24:00.149Z,15.73
2023-05-10T02:26:37.552Z,15.72
2023-05-10T02:29:13.295Z,15.69
2023-05-10T02:31:47.352Z,15.67
2023-05-10T02:34:21.700Z,15.69
2023-05-10T02:36:56.385Z,15.67
2023-05-10T02:39:30.376Z,15.71
2023-05-10T02:42:04.336Z,15.65
2023-05-10T02:44:43.047Z,15.64
2023-05-10T02:47:15.820Z,15.68
2023-05-10T02:49:49.278Z,15.71
2023-05-10T02:52:26.654Z,15.69
2023-05-10T02:55:04.806Z,15.70
2023-05-10T02:57:43.373Z,15.71
2023-05-10T03:00:16.670Z,15.77
2023-05-10T03:02:49.645Z,15.73
2023-05-10T03:05:23.401Z,15.72
2023-05-10T03:07:57.774Z,15.81
2023-05-10T03:10:32.850Z,15.75
2023-05-10T03:13:14.445Z,15.78
2023-05-10T03:15:57.697Z,15.72
2023-05-10T03:18:31.440Z,15.71
2023-05-10T03:21:06.979Z,15.68
2023-05-10T03:23:45.215Z,15.73
2023-05-10T03:26:26.534Z,15.79
2023-05-10T03:29:07.130Z,15.74
2023-05-10T03:31:40.595Z,15.72
2023-05-10T03:34:13.422Z,15.75
2023-05-10T03:36:46.271Z,15.72
2023-05-10T03:39:23.583Z,15.74
2023-05-10T03:42:00.316Z,15.75
2023-05-10T03:44:34.300Z,15.75
2023-05-10T03:47:07.333Z,15.69
2023-05-10T03:49:40.122Z,15.71
2023-05-10T03:52:13.011Z,15.72
2023-05-10T03:54:47.141Z,15.72
2023-05-10T03:57:19.974Z,15.69
2023-05-10T03:59:52.730Z,15.72
2023-05-10T04:02:25.741Z,15.79
2023-05-10T04:04:59.295Z,15.70
2023-05-10T04:07:32.133Z,15.70
2023-05-10T04:10:07.497Z,15.65
2023-05-10T04:12:40.203Z,15.71
2023-05-10T04:15:12.938Z,15.67
2023-05-10T04:17:46.121Z,15.67
2023-05-10T04:20:19.444Z,15.64
2023-05-10T04:22:52.225Z,15.69
2023-05-10T04:25:26.361Z,15.66
2023-05-10T04:27:59.068Z,15.68
2023-05-10T04:30:31.766Z,15.65
2023-05-10T04:33:05.068Z,15.64
2023-05-10T04:35:37.847Z,15.66
2023-05-10T04:38:10.510Z,15.61
2023-05-10T04:40:44.528Z,15.65
2023-05-10T04:43:17.230Z,15.67
2023-05-10T04:45:51.244Z,15.64
2023-05-10T04:48:24.079Z,15.63
2023-05-10T04:50:57.409Z,15.63
2023-05-10T04:53:30.210Z,15.63
2023-05-10T04:56:04.497Z,15.64
2023-05-10T04:58:37.171Z,15.65
2023-05-10T05:01:11.475Z,15.67
2023-05-10T05:03:44.556Z,15.65
2023-05-10T05:06:17.380Z,15.64
2023-05-10T05:08:51.165Z,15.64
2023-05-10T05:11:26.378Z,15.69
2023-05-10T05:14:00.237Z,15.62
2023-05-10T05:16:33.342Z,15.57
2023-05-10T05:19:06.097Z,15.59
2023-05-10T05:21:39.187Z,15.57
2023-05-10T05:24:13.699Z,15.62
2023-05-10T05:26:48.120Z,15.63
2023-05-10T05:29:21.032Z,15.60
2023-05-10T05:31:55.470Z,15.63
2023-05-10T05:34:28.749Z,15.60
2023-05-10T05:37:01.645Z,15.64
2023-05-10T05:39:34.477Z,15.56
2023-05-10T05:42:08.531Z,15.56
2023-05-10T05:44:41.754Z,15.56
2023-05-10T05:47:14.652Z,15.59
2023-05-10T05:49:47.338Z,15.62
2023-05-10T05:52:20.385Z,15.68
2023-05-10T05:54:53.129Z,15.67
2023-05-10T05:57:27.632Z,15.67
2023-05-10T06:00:00.593Z,15.70
2023-05-10T06:02:33.203Z,15.69
2023-05-10T06:05:07.942Z,15.80
2023-05-10T06:07:43.049Z,15.77
2023-05-10T06:10:15.911Z,15.74
2023-05-10T06:12:50.051Z,15.77
2023-05-10T06:15:22.898Z,15.71
2023-05-10T06:17:55.868Z,15.74
2023-05-10T06:20:28.556Z,15.71
2023-05-10T06:23:01.553Z,15.75
2023-05-10T06:25:34.221Z,15.78
2023-05-10T06:28:08.330Z,15.83
2023-05-10T06:30:41.261Z,15.86
2023-05-10T06:33:13.922Z,15.83
2023-05-10T06:35:46.685Z,15.88
2023-05-10T06:38:19.359Z,15.98
2023-05-10T06:40:52.463Z,15.98
2023-05-10T06:43:27.300Z,16.06
2023-05-10T06:46:00.279Z,16.16
2023-05-10T06:48:33.176Z,16.22
2023-05-10T06:51:06.057Z,16.21
2023-05-10T06:53:38.645Z,16.30
2023-05-10T06:56:11.398Z,16.38
2023-05-10T06:58:45.481Z,16.46
2023-05-10T07:01:18.559Z,16.54
2023-05-10T07:03:51.595Z,16.61
2023-05-10T07:06:33.404Z,16.67
2023-05-10T07:09:06.841Z,16.70
2023-05-10T07:11:39.603Z,16.80
2023-05-10T07:14:13.807Z,16.87
2023-05-10T07:16:47.054Z,16.94
2023-05-10T07:19:20.510Z,17.06
2023-05-10T07:21:53.825Z,17.07
2023-05-10T07:24:26.588Z,17.14
2023-05-10T07:26:59.302Z,17.18
2023-05-10T07:29:33.391Z,17.25
2023-05-10T07:32:07.035Z,17.28
2023-05-10T07:34:39.816Z,17.31
2023-05-10T07:37:12.519Z,17.32
2023-05-10T07:39:45.328Z,17.34
2023-05-10T07:42:18.128Z,17.36
2023-05-10T07:44:52.230Z,17.39
2023-05-10T07:47:25.473Z,17.43
2023-05-10T07:49:58.300Z,17.47
2023-05-10T07:52:31.029Z,17.47
2023-05-10T07:55:04.101Z,17.53
2023-05-10T07:57:36.791Z,17.55
2023-05-10T08:00:15.172Z,17.56
2023-05-10T08:02:48.485Z,17.61
2023-05-10T08:05:21.360Z,17.67
2023-05-10T08:07:54.111Z,17.69
2023-05-10T08:10:27.530Z,17.73
2023-05-10T08:13:00.416Z,17.75
2023-05-10T08:15:34.388Z,17.77
2023-05-10T08:18:07.302Z,17.79
2023-05-10T08:20:40.020Z,17.79
2023-05-10T08:23:14.503Z,17.79
2023-05-10T08:25:47.610Z,17.78
2023-05-10T08:28:20.427Z,17.78
2023-05-10T08:30:54.703Z,17.80
2023-05-10T08:33:27.492Z,17.77
2023-05-10T08:36:00.228Z,17.75
2023-05-10T08:38:33.002Z,17.72
2023-05-10T08:41:07.362Z,17.72
2023-05-10T08:43:42.517Z,17.72
2023-05-10T08:46:18.737Z,17.73
2023-05-10T08:48:52.723Z,17.73
2023-05-10T08:51:28.654Z,17.72
2023-05-10T08:54:02.169Z,17.73
2023-05-10T08:56:35.283Z,17.72
2023-05-10T08:59:08.060Z,17.71
2023-05-10T09:01:45.043Z,17.69
2023-05-10T09:04:17.892Z,17.73
2023-05-10T09:06:50.559Z,17.74
2023-05-10T09:09:23.828Z,17.75
2023-05-10T09:11:57.147Z,17.74
2023-05-10T09:14:29.985Z,17.76
2023-05-10T09:17:04.395Z,17.73
2023-05-10T09:19:37.216Z,17.73
2023-05-10T09:22:10.638Z,17.65
2023-05-10T09:24:46.375Z,17.69
2023-05-10T09:27:19.262Z,17.67
2023-05-10T09:29:55.334Z,17.67
2023-05-10T09:32:40.814Z,17.70
2023-05-10T09:35:15.695Z,17.74
2023-05-10T09:37:50.193Z,17.79
2023-05-10T09:40:25.082Z,17.83
2023-05-10T09:43:00.011Z,17.91
2023-05-10T09:45:37.755Z,18.04
2023-05-10T09:48:12.713Z,18.15
2023-05-10T09:50:45.590Z,18.24
2023-05-10T09:53:18.789Z,18.24
2023-05-10T09:55:52.164Z,18.30
2023-05-10T09:58:24.934Z,18.29
2023-05-10T10:00:57.882Z,18.31
2023-05-10T10:03:32.104Z,18.32
2023-05-10T10:06:06.764Z,18.32
2023-05-10T10:08:40.761Z,18.30
2023-05-10T10:11:13.545Z,18.32
2023-05-10T10:13:46.422Z,18.26
2023-05-10T10:16:19.257Z,18.32
2023-05-10T10:18:53.440Z,18.36
2023-05-10T10:21:26.818Z,18.42
2023-05-10T10:23:59.584Z,18.44
2023-05-10T10:26:32.621Z,18.48
2023-05-10T10:29:18.174Z,18.50
2023-05-10T10:32:01.831Z,18.54
2023-05-10T10:34:36.619Z,18.61
2023-05-10T10:37:09.419Z,18.66
2023-05-10T10:39:42.217Z,18.65
2023-05-10T10:42:14.900Z,18.65
2023-05-10T10:44:47.808Z,18.59
2023-05-10T10:47:29.159Z,18.55
2023-05-10T10:50:08.600Z,18.62
2023-05-10T10:52:42.539Z,18.64
2023-05-10T10:55:19.133Z,18.60
2023-05-10T10:57:54.481Z,18.57
2023-05-10T11:00:29.918Z,18.70
2023-05-10T11:03:07.599Z,18.68
2023-05-10T11:05:43.472Z,18.71
2023-05-10T11:08:19.050Z,18.72
2023-05-10T11:11:04.399Z,18.76
2023-05-10T11:13:41.169Z,18.85
2023-05-10T11:16:19.686Z,18.87
2023-05-10T11:18:59.421Z,18.97
2023-05-10T11:21:35.173Z,18.99
2023-05-10T11:24:15.928Z,19.07
2023-05-10T11:26:52.408Z,19.02
2023-05-10T11:29:27.277Z,19.04
2023-05-10T11:32:09.473Z,19.03
2023-05-10T11:34:42.617Z,19.08
2023-05-10T11:37:16.694Z,19.07
2023-05-10T11:39:49.734Z,19.15
2023-05-10T11:42:22.950Z,19.18
2023-05-10T11:44:55.903Z,19.21
2023-05-10T11:47:28.830Z,19.19
2023-05-10T11:50:02.014Z,19.20
2023-05-10T11:52:39.204Z,19.23
2023-05-10T11:55:12.145Z,19.27
2023-05-10T11:57:46.921Z,19.38
2023-05-10T12:00:20.038Z,19.31
2023-05-10T12:02:53.198Z,19.38
2023-05-10T12:05:26.248Z,19.36
2023-05-10T12:08:14.735Z,19.42
2023-05-10T12:10:47.461Z,19.42
2023-05-10T12:13:22.326Z,19.43
2023-05-10T12:15:55.047Z,19.45
2023-05-10T12:18:27.975Z,19.48
2023-05-10T12:21:05.331Z,19.44
2023-05-10T12:23:39.666Z,19.40
2023-05-10T12:26:12.674Z,19.48
2023-05-10T12:28:45.513Z,19.37
2023-05-10T12:31:21.670Z,19.28
2023-05-10T12:33:54.649Z,19.29
2023-05-10T12:36:27.438Z,19.27
2023-05-10T12:39:06.750Z,19.28
2023-05-10T12:41:42.151Z,19.28
2023-05-10T12:44:16.592Z,19.35
2023-05-10T12:46:49.460Z,19.37
2023-05-10T12:49:22.477Z,19.44
2023-05-10T12:51:55.612Z,19.53
2023-05-10T12:54:29.841Z,19.41
2023-05-10T12:57:02.653Z,19.48
2023-05-10T12:59:37.461Z,19.53
2023-05-10T13:02:11.799Z,19.59
2023-05-10T13:04:44.818Z,19.77
2023-05-10T13:07:17.742Z,19.92
2023-05-10T13:09:51.652Z,19.86
2023-05-10T13:12:24.480Z,20.09
2023-05-10T13:14:57.522Z,20.09
2023-05-10T13:17:32.191Z,20.15
2023-05-10T13:20:07.384Z,20.32
2023-05-10T13:22:40.847Z,20.25
2023-05-10T13:25:15.528Z,20.31
2023-05-10T13:27:49.215Z,20.33
2023-05-10T13:30:22.070Z,20.30
2023-05-10T13:32:55.099Z,20.39
2023-05-10T13:35:27.989Z,20.36
2023-05-10T13:38:00.881Z,20.28
2023-05-10T13:40:34.986Z,20.29
2023-05-10T13:43:08.036Z,20.22
2023-05-10T13:45:40.890Z,20.12
2023-05-10T13:48:13.607Z,20.09
2023-05-10T13:50:47.094Z,20.06
2023-05-10T13:53:20.335Z,20.08
2023-05-10T13:55:54.665Z,20.05
2023-05-10T13:58:27.740Z,19.98
2023-05-10T14:01:00.815Z,20.12
2023-05-10T14:03:34.288Z,20.00
2023-05-10T14:06:08.337Z,20.06
2023-05-10T14:08:41.293Z,20.04
2023-05-10T14:11:15.301Z,20.05
2023-05-10T14:13:48.215Z,20.00
2023-05-10T14:16:21.416Z,19.98
2023-05-10T14:18:56.725Z,20.06
2023-05-10T14:21:30.599Z,20.05
2023-05-10T14:24:03.506Z,19.91
2023-05-10T14:26:40.609Z,19.94
2023-05-10T14:29:13.648Z,20.03
2023-05-10T14:31:46.617Z,20.01
2023-05-10T14:34:19.778Z,20.07
2023-05-10T14:36:55.329Z,20.07
2023-05-10T14:39:30.617Z,20.21
2023-05-10T14:42:08.990Z,20.28
2023-05-10T14:44:41.988Z,20.36
2023-05-10T14:47:15.384Z,20.47
2023-05-10T14:49:48.497Z,20.45
2023-05-10T14:52:21.540Z,20.50
2023-05-10T14:54:54.589Z,20.43
2023-05-10T14:57:30.561Z,20.57
2023-05-10T15:00:03.492Z,20.52
2023-05-10T15:02:37.030Z,20.65
2023-05-10T15:05:10.939Z,20.67
2023-05-10T15:07:44.857Z,20.64
2023-05-10T15:10:18.032Z,20.72
2023-05-10T15:12:55.068Z,20.69
2023-05-10T15:15:28.285Z,20.83
2023-05-10T15:18:01.227Z,20.77
2023-05-10T15:20:33.980Z,20.74
2023-05-10T15:23:06.736Z,20.75
2023-05-10T15:25:40.527Z,20.72
2023-05-10T15:28:14.673Z,20.88
2023-05-10T15:30:47.419Z,20.86
2023-05-10T15:33:20.476Z,20.83
2023-05-10T15:35:54.585Z,20.90
2023-05-10T15:38:27.487Z,20.90
2023-05-10T15:41:02.746Z,20.85
2023-05-10T15:43:38.753Z,20.87
2023-05-10T15:46:11.723Z,20.81
2023-05-10T15:48:44.942Z,20.81
2023-05-10T15:51:17.532Z,20.81
2023-05-10T15:54:05.374Z,20.93
2023-05-10T15:56:39.425Z,20.92
2023-05-10T15:59:13.691Z,20.97
2023-05-10T16:01:46.541Z,20.96
2023-05-10T16:04:19.293Z,20.96
2023-05-10T16:06:52.202Z,21.06
2023-05-10T16:09:24.822Z,21.04
2023-05-10T16:11:57.919Z,21.05
2023-05-10T16:14:33.788Z,20.94
2023-05-10T16:17:06.762Z,20.93
2023-05-10T16:19:41.039Z,20.87
2023-05-10T16:22:16.452Z,20.84
2023-05-10T16:24:49.379Z,20.78
2023-05-10T16:27:22.079Z,20.77
2023-05-10T16:29:56.346Z,20.62
2023-05-10T16:32:29.355Z,20.51
2023-05-10T16:35:02.328Z,20.51
2023-05-10T16:37:36.287Z,20.48
2023-05-10T16:40:10.428Z,20.50
2023-05-10T16:42:43.380Z,20.39
2023-05-10T16:45:18.483Z,20.39
2023-05-10T16:47:51.649Z,20.38
2023-05-10T16:50:25.960Z,20.35
2023-05-10T16:52:58.801Z,20.33
2023-05-10T16:55:31.675Z,20.29
2023-05-10T16:58:04.797Z,20.32
2023-05-10T17:00:42.181Z,20.30
2023-05-10T17:03:15.338Z,20.36
2023-05-10T17:05:48.606Z,20.23
2023-05-10T17:08:23.215Z,20.40
2023-05-10T17:11:02.373Z,20.32
2023-05-10T17:13:35.198Z,20.32
2023-05-10T17:16:09.921Z,20.31
2023-05-10T17:18:43.326Z,20.28
2023-05-10T17:21:16.932Z,20.31
2023-05-10T17:23:51.954Z,20.34
2023-05-10T17:26:25.028Z,20.33
2023-05-10T17:28:58.210Z,20.32
2023-05-10T17:31:34.900Z,20.23
2023-05-10T17:34:07.835Z,20.24
2023-05-10T17:36:40.686Z,20.15
2023-05-10T17:39:13.527Z,20.15
2023-05-10T17:41:47.477Z,20.14
2023-05-10T17:44:20.670Z,20.07
2023-05-10T17:46:55.058Z,20.05
2023-05-10T17:49:29.095Z,19.99
2023-05-10T17:52:02.210Z,19.83
2023-05-10T17:54:35.136Z,19.79
2023-05-10T17:57:07.961Z,19.78
2023-05-10T17:59:41.131Z,19.68
2023-05-10T18:02:15.721Z,19.65
2023-05-10T18:04:49.434Z,19.65
2023-05-10T18:07:23.775Z,19.67
2023-05-10T18:09:56.787Z,19.60
2023-05-10T18:12:29.520Z,19.60
2023-05-10T18:15:02.280Z,19.54
2023-05-10T18:17:36.937Z,19.52
2023-05-10T18:20:10.910Z,19.51
2023-05-10T18:22:44.074Z,19.47
2023-05-10T18:25:17.616Z,19.41
2023-05-10T18:27:52.048Z,19.32
2023-05-10T18:30:29.644Z,19.29
2023-05-10T18:33:03.927Z,19.11
2023-05-10T18:35:36.764Z,19.17
2023-05-10T18:38:10.189Z,19.05
2023-05-10T18:40:43.351Z,19.01
2023-05-10T18:43:18.858Z,18.99
2023-05-10T18:45:52.630Z,19.00
2023-05-10T18:48:31.191Z,18.90
2023-05-10T18:51:07.807Z,18.86
2023-05-10T18:53:40.769Z,18.87
2023-05-10T18:56:13.916Z,18.75
2023-05-10T18:58:46.637Z,18.69
2023-05-10T19:01:19.623Z,18.67
2023-05-10T19:03:56.033Z,18.65
2023-05-10T19:06:29.270Z,18.58
2023-05-10T19:09:01.869Z,18.53
2023-05-10T19:11:34.891Z,18.48
2023-05-10T19:14:07.847Z,18.45
2023-05-10T19:16:41.731Z,18.33
2023-05-10T19:19:16.193Z,18.20
2023-05-10T19:21:49.233Z,18.20
2023-05-10T19:24:25.931Z,18.19
2023-05-10T19:26:59.029Z,18.16
2023-05-10T19:29:32.230Z,18.09
2023-05-10T19:32:05.816Z,18.08
2023-05-10T19:34:40.308Z,18.02
2023-05-10T19:37:13.122Z,18.00
2023-05-10T19:39:46.009Z,17.99
2023-05-10T19:42:19.681Z,17.91
2023-05-10T19:44:53.714Z,17.82
2023-05-10T19:47:26.558Z,17.79
2023-05-10T19:50:00.936Z,17.77
2023-05-10T19:52:34.175Z,17.75
2023-05-10T19:55:08.746Z,17.66
2023-05-10T19:57:41.961Z,17.57
2023-05-10T20:00:15.552Z,17.59
2023-05-10T20:02:48.492Z,17.59
2023-05-10T20:05:22.937Z,17.55
2023-05-10T20:07:55.823Z,17.54
2023-05-10T20:10:28.458Z,17.47
2023-05-10T20:13:01.454Z,17.46
2023-05-10T20:15:34.310Z,17.46
2023-05-10T20:18:07.559Z,17.45
2023-05-10T20:20:42.132Z,17.32
2023-05-10T20:23:15.257Z,17.32
2023-05-10T20:25:48.233Z,17.28
2023-05-10T20:28:22.371Z,17.28
2023-05-10T20:30:59.817Z,17.25
2023-05-10T20:33:33.156Z,17.28
2023-05-10T20:36:09.463Z,17.21
2023-05-10T20:38:42.395Z,17.19
2023-05-10T20:41:14.990Z,17.15
2023-05-10T20:43:47.737Z,17.06
2023-05-10T20:46:20.488Z,17.08
2023-05-10T20:48:53.324Z,17.12
2023-05-10T20:51:28.941Z,17.13
2023-05-10T20:54:04.636Z,17.12
2023-05-10T20:56:37.328Z,17.05
2023-05-10T20:59:09.965Z,17.16
2023-05-10T21:01:42.758Z,17.28
2023-05-10T21:04:15.444Z,17.27
2023-05-10T21:06:49.482Z,17.24
2023-05-10T21:09:22.314Z,17.22
2023-05-10T21:11:55.159Z,17.16
2023-05-10T21:14:28.051Z,17.18
2023-05-10T21:17:00.704Z,17.20
2023-05-10T21:19:33.447Z,17.21
2023-05-10T21:22:07.591Z,17.20
2023-05-10T21:24:40.909Z,17.19
2023-05-10T21:27:13.661Z,17.18
2023-05-10T21:29:46.576Z,17.16
2023-05-10T21:32:19.504Z,17.12
2023-05-10T21:34:52.140Z,17.16
2023-05-10T21:37:26.358Z,17.18
2023-05-10T21:39:59.156Z,17.15
2023-05-10T21:42:32.447Z,17.04
2023-05-10T21:45:06.076Z,17.12
2023-05-10T21:47:38.885Z,17.10
2023-05-10T21:50:12.666Z,17.08
2023-05-10T21:52:46.738Z,17.08
2023-05-10T21:55:19.593Z,17.07
2023-05-10T21:57:52.490Z,17.06
2023-05-10T22:00:25.478Z,17.06
2023-05-10T22:02:58.335Z,16.98
2023-05-10T22:05:31.128Z,16.98
2023-05-10T22:08:05.833Z,17.00
2023-05-10T22:10:38.542Z,17.01
2023-05-10T22:13:11.324Z,16.96
2023-05-10T22:15:44.244Z,16.94
2023-05-10T22:18:16.998Z,16.91
2023-05-10T22:20:49.980Z,16.90
2023-05-10T22:23:23.839Z,16.89
2023-05-10T22:26:00.978Z,16.90
2023-05-10T22:28:33.746Z,16.91
2023-05-10T22:31:10.527Z,16.90
2023-05-10T22:33:43.352Z,16.91
2023-05-10T22:36:16.178Z,16.93
2023-05-10T22:38:50.195Z,16.92
2023-05-10T22:41:23.433Z,16.88
2023-05-10T22:43:56.498Z,16.83
2023-05-10T22:46:29.804Z,16.81
2023-05-10T22:49:02.597Z,16.78
2023-05-10T22:51:35.710Z,16.77
2023-05-10T22:54:09.733Z,16.79
2023-05-10T22:56:42.643Z,16.73
2023-05-10T22:59:15.380Z,16.78
2023-05-10T23:01:48.999Z,16.75
2023-05-10T23:04:21.825Z,16.73
2023-05-10T23:06:54.608Z,16.73
2023-05-10T23:09:28.570Z,16.70
2023-05-10T23:12:01.334Z,16.68
2023-05-10T23:14:34.040Z,16.66
2023-05-10T23:17:06.744Z,16.64
2023-05-10T23:19:39.394Z,16.64
2023-05-10T23:22:12.096Z,16.63
2023-05-10T23:24:46.188Z,16.63
2023-05-10T23:27:18.826Z,16.63
2023-05-10T23:29:55.451Z,16.56
2023-05-10T23:32:28.178Z,16.55
2023-05-10T23:35:01.121Z,16.51
2023-05-10T23:37:33.849Z,16.56
2023-05-10T23:40:09.445Z,16.57
2023-05-10T23:42:42.199Z,16.55
2023-05-10T23:45:14.882Z,16.54
2023-05-10T23:47:48.111Z,16.53
2023-05-10T23:50:23.456Z,16.52
2023-05-10T23:52:56.173Z,16.56
2023-05-10T23:55:30.165Z,16.51
2023-05-10T23:58:02.927Z,16.48
